Time;durP1;ratioP1;P1;durP2;ratioP2;P2;SDS_P1;SDS_P2;PMS_P1;PMS_P2;Temp;Humidity;BMP_temperature;BMP_pressure;BME280_temperature;BME280_humidity;BME280_pressure;Samples;Min_cycle;Max_cycle;Signal;HPM_P1;HPM_P2
2023/08/25 00:01:23;;;;;;;13.82;7.05;;;17.40;99.90;;;;;;5031309;28;20037;-50
2023/08/25 00:03:49;;;;;;;11.23;6.13;;;17.40;99.90;;;;;;5031329;28;20043;-48
2023/08/25 00:06:15;;;;;;;12.20;6.43;;;17.40;99.90;;;;;;5030817;28;20039;-48
2023/08/25 00:08:40;;;;;;;13.68;6.00;;;17.40;99.90;;;;;;5031193;28;20032;-48
2023/08/25 00:11:06;;;;;;;10.02;6.03;;;17.40;99.90;;;;;;5031194;28;20049;-54
2023/08/25 00:13:35;;;;;;;12.70;6.03;;;17.30;99.90;;;;;;5029557;28;20041;-47
2023/08/25 00:16:03;;;;;;;;;;;17.30;99.90;;;;;;5031385;28;20022;-48
2023/08/25 00:18:28;;;;;;;10.93;5.70;;;17.30;99.90;;;;;;5031023;28;19959;-51
2023/08/25 00:20:54;;;;;;;11.88;6.28;;;17.30;99.90;;;;;;5031049;28;20423;-47
2023/08/25 00:23:20;;;;;;;8.32;5.18;;;17.30;99.90;;;;;;5030659;28;20457;-47
2023/08/25 00:25:46;;;;;;;12.40;6.40;;;17.20;99.90;;;;;;5030812;28;20108;-44
2023/08/25 00:28:12;;;;;;;10.77;5.22;;;17.20;99.90;;;;;;5030933;28;20035;-44
2023/08/25 00:30:37;;;;;;;10.85;5.82;;;17.20;99.90;;;;;;5030811;28;20115;-46
2023/08/25 00:33:03;;;;;;;11.82;6.05;;;17.20;99.90;;;;;;5030725;28;20454;-46
2023/08/25 00:35:29;;;;;;;12.80;6.40;;;17.20;99.90;;;;;;5030414;28;20069;-47
2023/08/25 00:37:54;;;;;;;11.18;5.20;;;17.20;99.90;;;;;;5030630;28;20018;-48
2023/08/25 00:40:20;;;;;;;10.63;6.05;;;17.10;99.90;;;;;;5030235;28;20063;-45
2023/08/25 00:42:46;;;;;;;9.05;6.00;;;17.10;99.90;;;;;;5030429;28;20021;-46
2023/08/25 00:45:11;;;;;;;10.65;6.10;;;17.10;99.90;;;;;;5030551;28;20428;-46
2023/08/25 00:47:38;;;;;;;9.77;5.93;;;17.10;99.90;;;;;;5030369;28;20399;-45
2023/08/25 00:50:06;;;;;;;11.05;6.22;;;17.10;99.90;;;;;;5030191;28;20037;-46
2023/08/25 00:52:31;;;;;;;9.45;5.22;;;17.10;99.90;;;;;;5030366;28;20017;-46
2023/08/25 00:54:58;;;;;;;11.50;6.18;;;17.00;99.90;;;;;;5030184;28;20040;-46
2023/08/25 00:57:24;;;;;;;10.52;5.38;;;17.00;99.90;;;;;;5030154;28;20072;-46
2023/08/25 00:59:51;;;;;;;9.57;5.63;;;17.00;99.90;;;;;;5030267;28;20032;-45
2023/08/25 01:02:18;;;;;;;9.10;5.40;;;17.00;99.90;;;;;;5029954;28;20021;-46
2023/08/25 01:04:44;;;;;;;8.95;5.07;;;17.00;99.90;;;;;;5030208;28;20029;-47
2023/08/25 01:07:10;;;;;;;9.18;4.90;;;17.00;99.90;;;;;;5030261;28;20481;-44
2023/08/25 01:09:35;;;;;;;12.48;5.80;;;17.00;99.90;;;;;;5028424;28;20121;-44
2023/08/25 01:12:08;;;;;;;9.88;5.07;;;17.00;99.90;;;;;;5029928;28;20045;-45
2023/08/25 01:15:04;;;;;;;11.50;5.57;;;17.00;99.90;;;;;;5029857;28;20030;-44
2023/08/25 01:17:39;;;;;;;7.80;4.97;;;16.90;99.90;;;;;;5019472;28;20017;-46
2023/08/25 01:20:08;;;;;;;8.02;4.28;;;16.90;99.90;;;;;;5029581;28;20021;-45
2023/08/25 01:22:52;;;;;;;7.53;4.63;;;16.80;99.90;;;;;;5027911;28;20013;-45
2023/08/25 01:25:27;;;;;;;8.68;4.80;;;16.80;99.90;;;;;;5029773;28;20033;-48
2023/08/25 01:28:02;;;;;;;7.03;4.22;;;16.80;99.90;;;;;;5029413;28;20033;-46
2023/08/25 01:30:33;;;;;;;7.47;4.10;;;16.80;99.90;;;;;;5029605;28;20357;-47
2023/08/25 01:32:59;;;;;;;8.57;4.38;;;16.70;99.90;;;;;;5029771;28;20040;-51
2023/08/25 01:35:50;;;;;;;7.60;3.88;;;16.80;99.90;;;;;;5029769;28;20491;-49
2023/08/25 01:38:36;;;;;;;8.35;4.30;;;16.70;99.90;;;;;;5029302;28;20076;-46
2023/08/25 01:41:44;;;;;;;7.30;4.03;;;16.70;99.90;;;;;;5029555;28;20092;-48
2023/08/25 01:44:11;;;;;;;7.93;3.50;;;16.70;99.90;;;;;;5028883;28;20120;-48
2023/08/25 01:46:40;;;;;;;8.05;4.38;;;16.60;99.90;;;;;;5029454;28;20029;-58
2023/08/25 01:49:07;;;;;;;8.70;5.05;;;16.60;99.90;;;;;;5029271;28;20091;-46
2023/08/25 01:51:33;;;;;;;8.35;4.65;;;16.50;99.90;;;;;;5029850;28;20033;-54
2023/08/25 01:53:59;;;;;;;8.05;4.72;;;16.40;99.90;;;;;;5029263;28;20099;-52
2023/08/25 01:56:25;;;;;;;7.85;4.57;;;16.40;99.90;;;;;;5028938;28;20081;-51
2023/08/25 01:58:50;;;;;;;7.40;4.82;;;16.40;99.90;;;;;;5029394;28;20519;-53
2023/08/25 02:01:16;;;;;;;7.65;4.78;;;16.30;99.90;;;;;;5029227;28;20464;-49
2023/08/25 02:03:42;;;;;;;6.45;4.07;;;16.30;99.90;;;;;;5029359;28;20071;-46
2023/08/25 02:06:11;;;;;;;6.40;3.60;;;16.30;99.90;;;;;;5029354;28;20029;-45
2023/08/25 02:08:37;;;;;;;6.57;3.70;;;16.30;99.90;;;;;;5029405;28;20113;-49
2023/08/25 02:11:03;;;;;;;7.10;3.78;;;16.30;99.90;;;;;;5029302;28;20029;-49
2023/08/25 02:13:29;;;;;;;6.47;3.97;;;16.30;99.90;;;;;;5028758;28;20037;-53
2023/08/25 02:15:55;;;;;;;5.50;3.22;;;16.20;99.90;;;;;;5029174;28;20095;-49
2023/08/25 02:18:20;;;;;;;6.43;3.85;;;16.30;99.90;;;;;;5029082;28;20022;-53
2023/08/25 02:20:46;;;;;;;5.95;3.70;;;16.30;99.90;;;;;;5029558;28;20026;-53
2023/08/25 02:23:12;;;;;;;7.68;3.80;;;16.30;99.90;;;;;;5029455;28;20033;-48
2023/08/25 02:25:37;;;;;;;5.45;3.53;;;16.30;99.90;;;;;;5029075;28;20025;-55
2023/08/25 02:28:03;;;;;;;7.40;3.60;;;16.30;99.90;;;;;;5029247;28;20113;-46
2023/08/25 02:30:30;;;;;;;5.90;3.15;;;16.40;99.90;;;;;;5032927;28;20021;-55
2023/08/25 02:32:56;;;;;;;7.97;3.85;;;16.40;99.90;;;;;;5032946;28;20025;-56
2023/08/25 02:35:21;;;;;;;7.28;2.97;;;16.40;99.90;;;;;;5032896;28;20041;-54
2023/08/25 02:38:07;;;;;;;4.85;2.92;;;16.40;99.90;;;;;;5032873;28;20025;-47
2023/08/25 02:40:34;;;;;;;4.95;2.70;;;16.40;99.90;;;;;;5032891;28;20037;-49
2023/08/25 02:43:03;;;;;;;6.68;3.33;;;16.40;99.90;;;;;;5032993;28;20021;-45
2023/08/25 02:45:29;;;;;;;;;;;16.40;99.90;;;;;;5033412;28;20048;-47
2023/08/25 02:47:55;;;;;;;5.88;3.50;;;16.40;99.90;;;;;;5032991;28;20322;-46
2023/08/25 02:50:24;;;;;;;8.63;3.47;;;16.40;99.90;;;;;;5032672;28;20034;-53
2023/08/25 02:52:50;;;;;;;6.78;2.97;;;16.40;99.90;;;;;;5032628;28;20024;-57
2023/08/25 02:55:18;;;;;;;5.07;3.05;;;16.40;99.90;;;;;;5032465;28;20096;-53
2023/08/25 02:57:45;;;;;;;5.27;3.00;;;16.40;99.90;;;;;;5032416;28;20048;-49
2023/08/25 03:00:12;;;;;;;4.28;2.88;;;16.40;99.90;;;;;;5032374;28;20044;-49
2023/08/25 03:02:37;;;;;;;5.18;3.05;;;16.40;99.90;;;;;;5032375;28;20156;-50
2023/08/25 03:05:04;;;;;;;5.65;3.22;;;16.40;99.90;;;;;;5032192;28;20423;-54
2023/08/25 03:07:29;;;;;;;10.75;4.38;;;16.30;99.90;;;;;;5032312;28;20480;-51
2023/08/25 03:09:55;;;;;;;7.22;3.50;;;16.40;99.90;;;;;;5032181;28;20083;-52
2023/08/25 03:12:20;;;;;;;5.60;3.30;;;16.30;99.90;;;;;;5032256;28;20120;-51
2023/08/25 03:14:46;;;;;;;5.30;2.90;;;16.30;99.90;;;;;;5031942;28;20091;-53
2023/08/25 03:17:12;;;;;;;5.25;2.78;;;16.30;99.90;;;;;;5032190;28;20022;-52
2023/08/25 03:19:37;;;;;;;5.88;3.28;;;16.30;99.90;;;;;;5032096;28;20025;-49
2023/08/25 03:22:04;;;;;;;4.53;2.92;;;16.30;99.90;;;;;;5032217;28;20468;-49
2023/08/25 03:24:30;;;;;;;6.30;3.17;;;16.30;99.90;;;;;;5032258;28;20040;-54
2023/08/25 03:26:58;;;;;;;6.32;3.30;;;16.30;99.90;;;;;;5031784;28;20013;-48
2023/08/25 03:29:24;;;;;;;6.07;3.10;;;16.30;99.90;;;;;;5032117;28;20488;-51
2023/08/25 03:31:50;;;;;;;5.22;3.15;;;16.30;99.90;;;;;;5032011;28;20088;-48
2023/08/25 03:34:15;;;;;;;4.75;2.70;;;16.30;99.90;;;;;;5031801;28;20056;-53
2023/08/25 03:36:41;;;;;;;4.88;2.92;;;16.20;99.90;;;;;;5031824;28;20128;-46
2023/08/25 03:39:06;;;;;;;6.38;2.92;;;16.20;99.90;;;;;;5031298;28;20021;-51
2023/08/25 03:41:32;;;;;;;7.05;2.90;;;16.10;99.90;;;;;;5031518;28;20021;-51
2023/08/25 03:43:58;;;;;;;6.28;3.63;;;16.10;99.90;;;;;;5031460;28;20534;-44
2023/08/25 03:46:23;;;;;;;5.35;3.08;;;16.00;99.90;;;;;;5031592;28;20040;-46
2023/08/25 03:48:49;;;;;;;7.82;3.85;;;16.00;99.90;;;;;;5031471;28;20025;-46
2023/08/25 03:51:14;;;;;;;9.70;3.63;;;15.90;99.90;;;;;;5031261;28;20388;-51
2023/08/25 03:53:40;;;;;;;5.78;3.28;;;15.90;99.90;;;;;;5031408;28;20475;-53
2023/08/25 03:56:06;;;;;;;6.53;2.85;;;15.80;99.90;;;;;;5031223;28;20022;-54
2023/08/25 03:58:32;;;;;;;4.90;2.70;;;15.80;99.90;;;;;;5031139;28;20022;-52
2023/08/25 04:00:59;;;;;;;4.88;3.45;;;15.70;99.90;;;;;;5031202;28;20029;-54
2023/08/25 04:03:24;;;;;;;5.15;2.72;;;15.70;99.90;;;;;;5031093;28;20025;-55
2023/08/25 04:05:50;;;;;;;5.05;3.13;;;15.60;99.90;;;;;;5031298;28;20032;-53
2023/08/25 04:08:16;;;;;;;4.68;3.05;;;15.60;99.90;;;;;;5031022;28;20025;-56
2023/08/25 04:10:41;;;;;;;4.78;2.55;;;15.60;99.90;;;;;;5031140;28;20065;-54
2023/08/25 04:13:08;;;;;;;4.85;2.92;;;15.50;99.90;;;;;;5030789;28;20513;-52
2023/08/25 04:15:33;;;;;;;6.13;3.40;;;15.50;99.90;;;;;;5031207;28;20037;-55
2023/08/25 04:17:59;;;;;;;6.50;3.47;;;15.50;99.90;;;;;;5030817;28;20365;-51
2023/08/25 04:20:25;;;;;;;5.15;3.22;;;15.40;99.90;;;;;;5030985;28;20033;-51
2023/08/25 04:22:51;;;;;;;7.18;2.97;;;15.40;99.90;;;;;;5030756;28;20033;-52
2023/08/25 04:25:16;;;;;;;4.65;3.15;;;15.40;99.90;;;;;;5030501;28;20060;-49
2023/08/25 04:27:42;;;;;;;4.38;3.08;;;15.40;99.90;;;;;;5030703;28;20035;-51
2023/08/25 04:30:08;;;;;;;6.65;2.83;;;15.30;99.90;;;;;;5030571;28;20064;-52
2023/08/25 04:32:33;;;;;;;6.88;3.65;;;15.40;99.90;;;;;;5030885;28;20025;-48
2023/08/25 04:34:59;;;;;;;7.03;3.33;;;15.30;99.90;;;;;;5030563;28;20080;-53
2023/08/25 04:37:25;;;;;;;5.35;3.15;;;15.40;99.90;;;;;;5030670;28;20044;-53
2023/08/25 04:39:52;;;;;;;7.40;3.95;;;15.40;99.90;;;;;;5030588;28;20022;-50
2023/08/25 04:42:18;;;;;;;7.43;3.63;;;15.40;99.90;;;;;;5030494;28;20109;-51
2023/08/25 04:44:44;;;;;;;5.72;3.25;;;15.40;99.90;;;;;;5029536;28;20108;-51
2023/08/25 04:47:10;;;;;;;4.32;2.70;;;15.40;99.90;;;;;;5030620;28;20488;-54
2023/08/25 04:49:35;;;;;;;6.43;3.60;;;15.40;99.90;;;;;;5030518;28;20079;-54
2023/08/25 04:52:01;;;;;;;5.65;3.15;;;15.40;99.90;;;;;;5029859;28;20440;-47
2023/08/25 04:54:27;;;;;;;5.70;3.65;;;15.40;99.90;;;;;;5029871;28;20052;-51
2023/08/25 04:56:52;;;;;;;4.93;2.95;;;15.40;99.90;;;;;;5030109;28;20028;-51
2023/08/25 04:59:18;;;;;;;5.90;3.05;;;15.40;99.90;;;;;;5030141;28;20443;-53
2023/08/25 05:01:43;;;;;;;4.80;2.95;;;15.40;99.90;;;;;;5030303;28;20384;-55
2023/08/25 05:04:11;;;;;;;5.25;3.30;;;15.30;99.90;;;;;;5030335;28;20057;-45
2023/08/25 05:06:37;;;;;;;7.40;3.90;;;15.30;99.90;;;;;;5030190;28;20044;-53
2023/08/25 05:09:03;;;;;;;5.38;3.10;;;15.30;99.90;;;;;;5030044;28;20025;-53
2023/08/25 05:11:28;;;;;;;4.88;2.85;;;15.30;99.90;;;;;;5029810;28;20356;-54
2023/08/25 05:13:54;;;;;;;6.97;3.38;;;15.30;99.90;;;;;;5030278;28;20118;-46
2023/08/25 05:16:20;;;;;;;4.40;2.63;;;15.30;99.90;;;;;;5029850;28;20034;-49
2023/08/25 05:18:45;;;;;;;5.20;3.03;;;15.30;99.90;;;;;;5029913;28;20025;-49
2023/08/25 05:21:12;;;;;;;5.78;3.10;;;15.30;99.90;;;;;;5029611;28;20018;-48
2023/08/25 05:23:42;;;;;;;5.82;3.42;;;15.30;99.90;;;;;;5029288;28;20445;-53
2023/08/25 05:26:08;;;;;;;5.50;3.15;;;15.20;99.90;;;;;;5029750;28;20056;-55
2023/08/25 05:28:33;;;;;;;6.05;3.38;;;15.20;99.90;;;;;;5029749;28;20034;-52
2023/08/25 05:30:59;;;;;;;6.07;3.15;;;15.20;99.90;;;;;;5029431;28;20034;-53
2023/08/25 05:33:24;;;;;;;6.22;3.47;;;15.20;99.90;;;;;;5029649;28;20033;-45
2023/08/25 05:35:50;;;;;;;7.60;3.17;;;15.20;99.90;;;;;;5029603;28;20128;-52
2023/08/25 05:38:15;;;;;;;6.63;3.55;;;15.20;99.90;;;;;;5029563;28;20064;-47
2023/08/25 05:40:41;;;;;;;11.00;3.40;;;15.20;99.90;;;;;;5029474;28;20060;-47
2023/08/25 05:43:07;;;;;;;9.40;3.53;;;15.20;99.90;;;;;;5029492;28;20092;-48
2023/08/25 05:45:32;;;;;;;6.30;3.60;;;15.30;99.90;;;;;;5029664;28;20861;-49
2023/08/25 05:47:58;;;;;;;6.50;2.95;;;15.20;99.90;;;;;;5029685;28;20071;-51
2023/08/25 05:50:24;;;;;;;7.25;3.30;;;15.30;99.90;;;;;;5029605;28;20033;-50
2023/08/25 05:52:49;;;;;;;7.13;3.00;;;15.30;99.90;;;;;;5029391;28;20017;-49
2023/08/25 05:55:16;;;;;;;7.35;3.45;;;15.30;99.90;;;;;;5029510;28;20037;-55
2023/08/25 05:57:41;;;;;;;5.50;3.20;;;15.30;99.90;;;;;;5029699;28;20025;-56
2023/08/25 06:00:07;;;;;;;5.13;2.80;;;15.30;99.90;;;;;;5029791;28;20499;-51
2023/08/25 06:02:33;;;;;;;5.15;3.20;;;15.30;99.90;;;;;;5030005;28;20476;-50
2023/08/25 06:04:59;;;;;;;4.57;3.10;;;15.30;99.90;;;;;;5033801;28;20032;-52
2023/08/25 06:07:25;;;;;;;5.20;3.22;;;15.40;99.90;;;;;;5033348;28;20388;-58
2023/08/25 06:09:50;;;;;;;6.38;2.90;;;15.50;99.90;;;;;;5033191;28;20064;-57
2023/08/25 06:12:16;;;;;;;5.43;3.10;;;15.50;99.90;;;;;;5033252;28;20053;-57
2023/08/25 06:14:42;;;;;;;9.32;2.83;;;15.50;99.90;;;;;;5033047;28;20029;-52
2023/08/25 06:17:07;;;;;;;5.20;2.55;;;15.60;99.90;;;;;;5033148;28;20087;-55
2023/08/25 06:19:35;;;;;;;5.43;2.63;;;15.60;99.90;;;;;;5032891;28;20061;-48
2023/08/25 06:22:00;;;;;;;4.05;2.33;;;15.60;99.90;;;;;;5032787;28;20030;-55
2023/08/25 06:24:26;;;;;;;4.05;2.20;;;15.60;99.90;;;;;;5032903;28;20033;-49
2023/08/25 06:26:52;;;;;;;12.18;2.80;;;15.60;99.90;;;;;;5033051;28;20022;-46
2023/08/25 06:29:18;;;;;;;4.10;2.55;;;15.70;99.90;;;;;;5031503;28;20071;-54
2023/08/25 06:31:44;;;;;;;3.97;2.15;;;15.70;99.90;;;;;;5032981;28;20044;-58
2023/08/25 06:34:09;;;;;;;4.40;2.10;;;15.80;99.90;;;;;;5032744;28;20416;-49
2023/08/25 06:36:35;;;;;;;4.90;3.45;;;15.80;99.90;;;;;;5032817;28;20090;-50
2023/08/25 06:39:01;;;;;;;3.33;1.92;;;16.10;99.90;;;;;;5032902;28;20021;-50
2023/08/25 06:41:26;;;;;;;4.10;1.90;;;16.60;99.90;;;;;;5032682;28;20528;-49
2023/08/25 06:43:53;;;;;;;4.40;2.00;;;17.20;99.90;;;;;;5032467;28;20037;-51
2023/08/25 06:46:19;;;;;;;3.45;1.40;;;17.70;99.90;;;;;;5032490;28;20029;-49
2023/08/25 06:48:45;;;;;;;2.03;1.23;;;18.00;99.90;;;;;;5017245;28;20384;-47
2023/08/25 06:51:11;;;;;;;3.50;1.33;;;18.40;99.90;;;;;;5030324;28;20121;-53
2023/08/25 06:53:36;;;;;;;1.92;1.00;;;18.70;99.90;;;;;;5032628;28;20080;-49
2023/08/25 06:56:02;;;;;;;3.88;1.50;;;18.70;99.90;;;;;;5032275;28;20037;-51
2023/08/25 06:58:28;;;;;;;2.83;1.55;;;18.50;99.90;;;;;;5032613;28;20109;-55
2023/08/25 07:00:54;;;;;;;3.35;1.42;;;18.30;99.90;;;;;;5032754;28;20072;-55
2023/08/25 07:03:20;;;;;;;4.53;1.70;;;17.90;99.90;;;;;;5032479;28;20022;-57
2023/08/25 07:05:46;;;;;;;3.38;1.25;;;17.60;99.90;;;;;;5032642;28;20109;-54
2023/08/25 07:08:12;;;;;;;3.35;1.30;;;17.70;99.90;;;;;;5032607;28;20021;-47
2023/08/25 07:10:38;;;;;;;3.20;1.50;;;18.30;99.90;;;;;;5031379;28;20052;-50
2023/08/25 07:13:04;;;;;;;2.20;1.27;;;19.00;99.90;;;;;;5032100;28;20587;-50
2023/08/25 07:15:30;;;;;;;2.60;1.20;;;19.60;99.90;;;;;;5031517;28;20044;-56
2023/08/25 07:17:55;;;;;;;2.42;1.30;;;20.30;99.90;;;;;;5032172;28;20483;-46
2023/08/25 07:20:21;;;;;;;2.22;1.20;;;20.40;99.90;;;;;;5032426;28;20021;-52
2023/08/25 07:22:47;;;;;;;2.53;1.38;;;20.80;99.90;;;;;;5032455;28;20018;-53
2023/08/25 07:25:13;;;;;;;4.50;1.10;;;20.90;99.90;;;;;;5032190;28;20588;-44
2023/08/25 07:27:39;;;;;;;4.10;1.10;;;21.30;99.90;;;;;;5032538;28;20124;-56
2023/08/25 07:30:06;;;;;;;3.65;1.02;;;21.70;99.90;;;;;;5032156;28;20025;-50
2023/08/25 07:32:32;;;;;;;3.45;0.95;;;22.10;99.90;;;;;;5032174;28;20032;-52
2023/08/25 07:34:57;;;;;;;2.63;1.35;;;22.40;99.90;;;;;;5032077;28;20140;-55
2023/08/25 07:37:24;;;;;;;3.40;1.52;;;22.70;99.90;;;;;;5032235;28;20022;-48
2023/08/25 07:39:54;;;;;;;1.88;0.80;;;22.30;99.90;;;;;;5032220;28;20022;-51
2023/08/25 07:42:21;;;;;;;1.95;0.90;;;22.00;99.90;;;;;;5032096;28;20071;-53
2023/08/25 07:44:47;;;;;;;3.75;1.17;;;21.80;99.90;;;;;;5031662;28;20033;-50
2023/08/25 07:47:13;;;;;;;2.75;1.05;;;21.20;99.90;;;;;;5031968;28;20080;-53
2023/08/25 07:49:39;;;;;;;1.95;1.02;;;20.80;99.90;;;;;;5031769;28;20064;-45
2023/08/25 07:52:04;;;;;;;1.42;0.85;;;20.60;99.90;;;;;;5024303;28;20096;-48
2023/08/25 07:54:30;;;;;;;2.05;0.93;;;20.70;99.90;;;;;;5031438;28;20056;-57
2023/08/25 07:56:56;;;;;;;2.92;0.90;;;21.20;99.90;;;;;;5031763;28;20451;-58
2023/08/25 07:59:22;;;;;;;2.03;0.90;;;21.90;99.90;;;;;;5031525;28;20075;-54
2023/08/25 08:01:48;;;;;;;1.80;0.82;;;22.40;99.90;;;;;;5031567;28;20045;-49
2023/08/25 08:04:13;;;;;;;1.40;0.73;;;22.50;99.90;;;;;;5030966;28;20112;-55
2023/08/25 08:06:40;;;;;;;1.17;0.70;;;22.60;99.90;;;;;;5031606;28;20064;-56
2023/08/25 08:09:06;;;;;;;2.72;0.82;;;22.70;99.90;;;;;;5031398;28;20075;-56
2023/08/25 08:11:33;;;;;;;2.38;0.77;;;22.70;99.90;;;;;;5031035;28;20056;-47
2023/08/25 08:13:59;;;;;;;1.52;0.82;;;22.50;99.90;;;;;;5031068;28;20026;-47
2023/08/25 08:16:26;;;;;;;1.10;0.70;;;22.10;99.90;;;;;;5031002;28;20030;-54
2023/08/25 08:18:52;;;;;;;2.90;0.80;;;22.20;99.90;;;;;;5031144;28;20033;-48
2023/08/25 08:21:18;;;;;;;1.02;0.70;;;22.50;99.90;;;;;;5030018;28;20112;-46
2023/08/25 08:23:44;;;;;;;1.10;0.60;;;22.80;99.90;;;;;;5031209;28;20179;-56
2023/08/25 08:26:09;;;;;;;2.13;0.90;;;23.20;99.90;;;;;;5031053;28;20021;-54
2023/08/25 08:28:35;;;;;;;1.83;0.90;;;23.30;99.90;;;;;;5026573;28;21561;-53
2023/08/25 08:31:05;;;;;;;2.35;0.80;;;23.30;99.90;;;;;;5025172;28;20033;-52
2023/08/25 08:33:34;;;;;;;0.90;0.60;;;23.70;99.90;;;;;;5029822;28;20025;-48
2023/08/25 08:36:00;;;;;;;1.35;0.52;;;23.90;99.90;;;;;;5028561;28;20704;-54
2023/08/25 08:38:26;;;;;;;0.82;0.60;;;23.80;99.90;;;;;;5029766;28;20120;-55
2023/08/25 08:40:52;;;;;;;1.80;0.70;;;23.70;99.90;;;;;;5030638;28;20060;-49
2023/08/25 08:43:18;;;;;;;0.52;0.47;;;23.90;99.90;;;;;;5030684;28;20021;-53
2023/08/25 08:45:48;;;;;;;0.73;0.57;;;24.00;99.90;;;;;;5030865;28;20039;-54
2023/08/25 08:48:15;;;;;;;0.75;0.60;;;24.40;99.90;;;;;;5030649;28;20013;-54
2023/08/25 08:50:43;;;;;;;0.75;0.40;;;24.80;99.90;;;;;;5030820;28;20030;-48
2023/08/25 08:53:09;;;;;;;1.58;0.65;;;24.80;99.90;;;;;;5030808;28;20023;-44
2023/08/25 08:55:35;;;;;;;1.80;0.40;;;25.00;99.90;;;;;;5030412;28;20072;-56
2023/08/25 08:58:00;;;;;;;1.10;0.40;;;25.20;99.90;;;;;;5030497;28;20104;-49
2023/08/25 09:00:27;;;;;;;1.17;0.50;;;25.60;99.90;;;;;;5030326;28;20472;-50
2023/08/25 09:02:58;;;;;;;0.93;0.40;;;25.60;99.90;;;;;;5030498;28;20440;-50
2023/08/25 09:05:27;;;;;;;1.23;0.50;;;25.80;99.90;;;;;;5030453;28;20048;-45
2023/08/25 09:07:58;;;;;;;1.45;0.60;;;25.90;99.90;;;;;;5030336;28;20395;-47
2023/08/25 09:10:25;;;;;;;1.08;0.52;;;26.00;99.90;;;;;;5028367;28;20557;-52
2023/08/25 09:12:51;;;;;;;0.63;0.40;;;26.10;99.90;;;;;;5029912;28;20041;-53
2023/08/25 09:15:30;;;;;;;1.40;0.52;;;25.80;99.90;;;;;;5029882;28;20461;-55
2023/08/25 09:18:04;;;;;;;2.25;0.90;;;25.20;99.90;;;;;;5030053;28;20021;-55
2023/08/25 09:20:32;;;;;;;0.68;0.40;;;24.80;99.90;;;;;;5030395;28;20072;-53
2023/08/25 09:22:57;;;;;;;1.07;0.40;;;24.90;99.90;;;;;;5030368;28;20018;-47
2023/08/25 09:25:24;;;;;;;1.17;0.60;;;24.70;99.90;;;;;;5029895;28;20603;-55
2023/08/25 09:27:59;;;;;;;2.80;0.73;;;24.20;99.90;;;;;;5028077;28;20029;-46
2023/08/25 09:30:41;;;;;;;1.75;0.60;;;23.70;99.90;;;;;;5027951;28;20412;-52
2023/08/25 09:33:13;;;;;;;0.88;0.57;;;23.30;99.90;;;;;;5028238;28;20491;-55
2023/08/25 09:35:40;;;;;;;2.75;0.80;;;23.90;99.90;;;;;;5028055;28;20510;-45
2023/08/25 09:38:07;;;;;;;2.75;1.08;;;24.40;99.90;;;;;;5027888;28;20491;-52
2023/08/25 09:40:36;;;;;;;1.13;0.60;;;24.60;99.90;;;;;;5028477;28;20075;-50
2023/08/25 09:43:03;;;;;;;2.03;0.90;;;25.10;99.90;;;;;;5027353;28;20437;-49
2023/08/25 09:45:33;;;;;;;0.60;0.40;;;25.90;99.90;;;;;;5028671;28;20030;-46
2023/08/25 09:48:26;;;;;;;1.40;0.50;;;26.20;99.90;;;;;;5029744;28;20044;-55
2023/08/25 09:50:52;;;;;;;0.40;0.38;;;26.70;99.90;;;;;;5024578;28;20038;-50
2023/08/25 09:53:19;;;;;;;2.10;0.57;;;26.80;99.40;;;;;;5029608;28;20028;-46
2023/08/25 09:55:45;;;;;;;1.38;0.40;;;27.10;99.90;;;;;;5029710;28;20037;-52
2023/08/25 09:58:12;;;;;;;1.20;0.50;;;27.00;98.70;;;;;;5029715;28;20665;-47
2023/08/25 10:00:38;;;;;;;1.05;0.60;;;27.00;98.70;;;;;;5029546;28;20025;-51
2023/08/25 10:03:08;;;;;;;1.52;0.60;;;26.70;99.90;;;;;;5029320;28;20021;-51
2023/08/25 10:05:36;;;;;;;1.02;0.50;;;26.10;99.90;;;;;;5029884;28;20036;-53
2023/08/25 10:08:01;;;;;;;0.68;0.60;;;25.60;99.90;;;;;;5029761;28;20017;-50
2023/08/25 10:10:31;;;;;;;1.23;0.40;;;25.60;99.90;;;;;;5029851;28;20031;-46
2023/08/25 10:12:58;;;;;;;0.98;0.50;;;25.50;99.90;;;;;;5029527;28;20045;-52
2023/08/25 10:15:27;;;;;;;0.55;0.40;;;25.20;99.90;;;;;;5029443;28;20034;-51
2023/08/25 10:17:56;;;;;;;0.98;0.40;;;25.50;99.90;;;;;;5029807;28;20022;-53
2023/08/25 10:20:23;;;;;;;1.67;0.57;;;25.80;99.90;;;;;;5029685;28;20480;-50
2023/08/25 10:22:50;;;;;;;1.15;0.50;;;26.20;99.90;;;;;;5029803;28;20075;-51
2023/08/25 10:25:18;;;;;;;1.88;0.55;;;26.60;99.90;;;;;;5029216;28;20412;-48
2023/08/25 10:27:44;;;;;;;0.65;0.52;;;26.50;97.50;;;;;;5029415;28;20723;-59
2023/08/25 10:30:11;;;;;;;2.33;0.52;;;26.50;99.70;;;;;;5029383;28;20082;-52
2023/08/25 10:32:49;;;;;;;0.63;0.43;;;26.60;98.80;;;;;;5016109;28;20425;-48
2023/08/25 10:35:15;;;;;;;2.40;0.63;;;26.70;98.20;;;;;;5029786;28;20038;-53
2023/08/25 10:37:41;;;;;;;1.73;0.70;;;26.90;98.90;;;;;;5029907;28;20033;-51
2023/08/25 10:40:11;;;;;;;3.08;0.52;;;27.30;98.40;;;;;;5028217;28;20519;-53
2023/08/25 10:42:36;;;;;;;0.98;0.50;;;27.50;97.10;;;;;;5029204;28;20052;-51
2023/08/25 10:45:10;;;;;;;0.73;0.40;;;27.80;97.10;;;;;;5029397;28;20128;-48
2023/08/25 10:47:46;;;;;;;1.45;0.60;;;28.00;98.50;;;;;;5029308;28;20476;-44
2023/08/25 10:50:13;;;;;;;2.05;0.43;;;28.10;96.20;;;;;;5022054;28;20072;-47
2023/08/25 10:52:46;;;;;;;2.67;0.55;;;28.40;97.40;;;;;;5033020;28;20045;-49
2023/08/25 10:55:28;;;;;;;1.85;0.50;;;28.30;96.20;;;;;;5032948;28;20029;-53
2023/08/25 10:58:04;;;;;;;2.45;0.65;;;28.50;96.30;;;;;;5032898;28;20022;-55
2023/08/25 11:00:36;;;;;;;2.00;0.50;;;28.10;95.70;;;;;;5026232;28;20464;-53
2023/08/25 11:03:02;;;;;;;0.60;0.50;;;27.90;95.40;;;;;;5032684;28;20033;-51
2023/08/25 11:05:37;;;;;;;1.45;0.73;;;27.70;96.90;;;;;;5032786;28;20049;-48
2023/08/25 11:08:26;;;;;;;4.03;1.02;;;27.80;95.90;;;;;;5032817;28;20041;-48
2023/08/25 11:11:12;;;;;;;0.75;0.47;;;27.30;96.50;;;;;;5032794;28;20029;-50
2023/08/25 11:13:39;;;;;;;5.10;2.33;;;26.20;97.00;;;;;;5032507;28;20052;-49
2023/08/25 11:16:10;;;;;;;4.78;2.10;;;26.10;97.00;;;;;;5032426;28;20121;-49
2023/08/25 11:18:38;;;;;;;2.05;0.80;;;25.70;96.60;;;;;;5032932;28;20032;-60
2023/08/25 11:21:04;;;;;;;5.65;2.55;;;25.30;96.70;;;;;;5032463;28;20033;-58
2023/08/25 11:23:43;;;;;;;6.53;2.65;;;25.40;98.20;;;;;;5032647;28;20028;-60
2023/08/25 11:26:13;;;;;;;3.28;1.60;;;25.50;97.80;;;;;;5032314;28;20112;-44
2023/08/25 11:28:39;;;;;;;6.25;1.83;;;25.50;97.50;;;;;;5032491;28;20057;-52
2023/08/25 11:31:07;;;;;;;5.80;2.30;;;25.70;97.40;;;;;;5032467;28;20432;-55
2023/08/25 11:33:33;;;;;;;8.90;5.25;;;25.90;98.70;;;;;;5032392;28;20029;-49
2023/08/25 11:36:02;;;;;;;13.77;6.35;;;26.50;97.10;;;;;;5032151;28;20040;-52
2023/08/25 11:38:30;;;;;;;4.47;2.00;;;26.40;97.10;;;;;;5032247;28;20017;-47
2023/08/25 11:40:56;;;;;;;1.93;0.97;;;26.70;96.60;;;;;;5032025;28;20109;-50
2023/08/25 11:43:29;;;;;;;2.20;0.80;;;26.50;96.20;;;;;;5032398;28;20025;-53
2023/08/25 11:45:55;;;;;;;1.27;0.60;;;26.00;96.20;;;;;;5031979;28;20116;-46
2023/08/25 11:48:21;;;;;;;3.28;1.58;;;25.70;96.70;;;;;;5032120;28;20075;-55
2023/08/25 11:50:47;;;;;;;8.10;4.50;;;25.40;97.00;;;;;;5031880;28;20030;-54
2023/08/25 11:53:13;;;;;;;17.88;10.50;;;25.20;95.40;;;;;;5032044;28;20021;-49
2023/08/25 11:55:38;;;;;;;18.63;8.80;;;25.10;97.80;;;;;;5030579;28;20485;-58
2023/08/25 11:58:07;;;;;;;1.60;0.90;;;24.90;98.60;;;;;;5031683;28;20044;-53
2023/08/25 12:00:37;;;;;;;2.15;0.88;;;25.10;97.70;;;;;;5031006;28;20083;-45
2023/08/25 12:03:04;;;;;;;2.70;1.00;;;25.60;97.60;;;;;;5031704;28;20126;-47
2023/08/25 12:05:30;;;;;;;1.30;0.80;;;25.80;96.20;;;;;;5031408;28;20025;-50
2023/08/25 12:08:02;;;;;;;2.47;1.15;;;25.90;96.50;;;;;;5031250;28;20021;-52
2023/08/25 12:10:35;;;;;;;2.28;1.10;;;26.20;96.90;;;;;;5031611;28;20049;-48
2023/08/25 12:13:02;;;;;;;1.10;0.77;;;26.10;95.70;;;;;;5031316;28;20064;-49
2023/08/25 12:15:39;;;;;;;2.38;0.70;;;25.80;97.10;;;;;;5031371;28;20025;-53
2023/08/25 12:18:05;;;;;;;4.75;0.88;;;25.70;96.60;;;;;;5030572;28;20057;-49
2023/08/25 12:20:30;;;;;;;1.58;0.75;;;25.40;96.40;;;;;;5029966;28;20033;-59
2023/08/25 12:22:59;;;;;;;3.83;0.68;;;25.30;97.30;;;;;;5030706;28;20029;-49
2023/08/25 12:25:25;;;;;;;1.42;0.88;;;25.40;97.00;;;;;;5031370;28;20033;-52
2023/08/25 12:27:51;;;;;;;3.15;1.00;;;25.70;97.50;;;;;;5031065;28;20178;-50
2023/08/25 12:30:17;;;;;;;1.95;0.82;;;25.90;95.40;;;;;;5029363;28;20108;-51
2023/08/25 12:32:43;;;;;;;5.13;1.98;;;26.20;95.60;;;;;;5029703;28;20033;-55
2023/08/25 12:35:09;;;;;;;2.03;0.80;;;26.60;97.10;;;;;;5031003;28;20040;-52
2023/08/25 12:37:34;;;;;;;1.88;0.80;;;26.60;95.50;;;;;;5030878;28;20040;-50
2023/08/25 12:40:00;;;;;;;2.15;0.82;;;25.80;95.50;;;;;;5030974;28;20056;-48
2023/08/25 12:42:26;;;;;;;1.65;0.73;;;25.20;95.10;;;;;;5030780;28;20397;-47
2023/08/25 12:44:52;;;;;;;3.42;1.50;;;24.90;96.50;;;;;;5030644;28;20021;-54
2023/08/25 12:47:17;;;;;;;2.28;0.80;;;24.70;96.10;;;;;;5031061;28;20071;-50